createdAt,value
2022-11-02T00:02:05.513Z,8.23
2022-11-02T00:04:35.836Z,8.43
2022-11-02T00:07:06.094Z,8.38
2022-11-02T00:09:36.098Z,9.05
2022-11-02T00:12:06.396Z,8.18
2022-11-02T00:14:36.744Z,8.80
2022-11-02T00:17:07.008Z,8.85
2022-11-02T00:19:37.231Z,12.02
2022-11-02T00:22:16.272Z,10.18
2022-11-02T00:24:50.062Z,10.43
2022-11-02T00:27:20.526Z,10.25
2022-11-02T00:29:50.438Z,11.15
2022-11-02T00:32:20.421Z,9.23
2022-11-02T00:34:50.543Z,12.48
2022-11-02T00:37:20.791Z,10.90
2022-11-02T00:39:51.353Z,10.60
2022-11-02T00:42:21.590Z,11.02
2022-11-02T00:44:51.659Z,10.68
2022-11-02T00:47:22.526Z,10.13
2022-11-02T00:49:52.597Z,11.50
2022-11-02T00:52:22.710Z,10.10
2022-11-02T00:54:54.929Z,11.77
2022-11-02T00:57:25.251Z,11.27
2022-11-02T00:59:56.413Z,11.85
2022-11-02T01:02:26.725Z,11.20
2022-11-02T01:04:56.717Z,11.48
2022-11-02T01:07:26.710Z,12.48
2022-11-02T01:09:56.732Z,12.43
2022-11-02T01:12:26.708Z,15.35
2022-11-02T01:14:56.730Z,12.60
2022-11-02T01:17:26.744Z,12.63
2022-11-02T01:19:56.726Z,12.48
2022-11-02T01:22:27.635Z,12.60
2022-11-02T01:24:57.605Z,15.18
2022-11-02T01:27:29.348Z,15.88
2022-11-02T01:29:59.812Z,14.93
2022-11-02T01:32:32.009Z,16.75
2022-11-02T01:35:04.163Z,15.80
2022-11-02T01:37:34.444Z,17.65
2022-11-02T01:40:04.389Z,15.40
2022-11-02T01:42:34.493Z,14.40
2022-11-02T01:45:05.762Z,18.38
2022-11-02T01:47:39.061Z,16.73
2022-11-02T01:50:10.738Z,18.13
2022-11-02T01:52:41.285Z,15.30
2022-11-02T01:55:14.499Z,17.35
2022-11-02T01:57:45.816Z,17.23
2022-11-02T02:00:16.685Z,16.05
2022-11-02T02:02:53.525Z,15.48
2022-11-02T02:07:53.815Z,15.10
2022-11-02T02:10:24.088Z,14.07
2022-11-02T02:12:54.248Z,14.50
2022-11-02T02:15:27.823Z,13.50
2022-11-02T02:18:13.677Z,14.35
2022-11-02T02:20:46.747Z,16.40
2022-11-02T02:23:49.007Z,16.15
2022-11-02T02:26:22.090Z,15.20
2022-11-02T02:29:02.609Z,15.02
2022-11-02T02:31:38.644Z,14.52
2022-11-02T02:34:27.062Z,13.13
2022-11-02T02:37:10.612Z,14.43
2022-11-02T02:39:40.635Z,14.15
2022-11-02T02:42:28.344Z,13.00
2022-11-02T02:45:02.237Z,13.70
2022-11-02T02:47:33.152Z,13.32
2022-11-02T02:50:10.946Z,15.00
2022-11-02T02:52:41.224Z,13.73
2022-11-02T02:55:12.374Z,16.58
2022-11-02T02:57:42.959Z,16.35
2022-11-02T03:00:18.944Z,13.02
2022-11-02T03:03:11.184Z,14.17
2022-11-02T03:05:42.014Z,13.15
2022-11-02T03:08:14.859Z,13.32
2022-11-02T03:10:57.202Z,15.65
2022-11-02T03:13:46.962Z,14.00
2022-11-02T03:16:21.974Z,14.32
2022-11-02T03:19:04.725Z,15.50
2022-11-02T03:21:45.134Z,14.68
2022-11-02T03:24:25.057Z,14.65
2022-11-02T03:27:14.786Z,11.85
2022-11-02T03:29:48.813Z,13.73
2022-11-02T03:32:30.824Z,12.32
2022-11-02T03:35:01.247Z,11.68
2022-11-02T03:37:36.073Z,10.45
2022-11-02T03:40:18.858Z,10.90
2022-11-02T03:42:49.743Z,10.43
2022-11-02T03:45:29.801Z,10.52
2022-11-02T03:48:07.553Z,13.13
2022-11-02T03:50:38.993Z,11.50
2022-11-02T03:53:10.415Z,11.35
2022-11-02T03:55:45.025Z,11.30
2022-11-02T03:58:15.479Z,12.15
2022-11-02T04:00:54.178Z,12.95
2022-11-02T04:03:24.719Z,23.10
2022-11-02T04:05:56.512Z,14.60
2022-11-02T04:08:38.573Z,33.42
2022-11-02T04:11:29.985Z,15.23
2022-11-02T04:14:28.142Z,11.75
2022-11-02T04:17:19.450Z,12.10
2022-11-02T04:20:05.734Z,10.88
2022-11-02T04:22:53.896Z,11.25
2022-11-02T04:25:23.886Z,11.57
2022-11-02T04:28:08.998Z,11.63
2022-11-02T04:30:44.446Z,9.32
2022-11-02T04:33:32.663Z,10.35
2022-11-02T04:36:09.250Z,9.45
2022-11-02T04:38:42.087Z,12.00
2022-11-02T04:41:39.214Z,11.43
2022-11-02T04:44:15.491Z,11.73
2022-11-02T04:46:53.978Z,12.35
2022-11-02T04:51:58.341Z,11.68
2022-11-02T04:54:30.762Z,13.27
2022-11-02T04:57:05.189Z,13.18
2022-11-02T04:59:37.088Z,12.68
2022-11-02T05:02:08.073Z,14.05
2022-11-02T05:04:39.031Z,14.05
2022-11-02T05:07:11.400Z,13.05
2022-11-02T05:09:43.679Z,15.52
2022-11-02T05:12:15.781Z,17.20
2022-11-02T05:14:46.247Z,16.08
2022-11-02T05:17:18.374Z,17.73
2022-11-02T05:19:49.289Z,16.95
2022-11-02T05:22:21.154Z,17.63
2022-11-02T05:24:51.777Z,20.17
2022-11-02T05:27:22.275Z,18.02
2022-11-02T05:29:52.802Z,18.98
2022-11-02T05:32:22.956Z,18.80
2022-11-02T05:34:53.417Z,21.35
2022-11-02T05:37:23.880Z,18.15
2022-11-02T05:39:54.529Z,19.23
2022-11-02T05:42:27.021Z,18.80
2022-11-02T05:44:58.020Z,29.67
2022-11-02T05:47:28.260Z,29.17
2022-11-02T05:49:58.842Z,31.38
2022-11-02T05:52:29.192Z,31.67
2022-11-02T05:54:59.315Z,30.27
2022-11-02T05:57:29.683Z,28.80
2022-11-02T06:00:00.179Z,26.88
2022-11-02T06:02:30.224Z,26.35
2022-11-02T06:05:02.892Z,26.25
2022-11-02T06:07:34.248Z,24.80
2022-11-02T06:10:04.625Z,26.30
2022-11-02T06:12:34.576Z,25.75
2022-11-02T06:15:05.138Z,24.73
2022-11-02T06:17:41.905Z,24.63
2022-11-02T06:20:12.079Z,22.80
2022-11-02T06:22:42.685Z,23.70
2022-11-02T06:25:12.826Z,21.55
2022-11-02T06:27:45.937Z,20.92
2022-11-02T06:30:16.980Z,19.13
2022-11-02T06:32:53.305Z,16.63
2022-11-02T06:35:23.939Z,16.23
2022-11-02T06:37:53.931Z,16.42
2022-11-02T06:40:26.558Z,15.48
2022-11-02T06:43:17.050Z,15.80
2022-11-02T06:45:47.946Z,13.95
2022-11-02T06:48:18.239Z,14.02
2022-11-02T06:50:48.295Z,15.50
2022-11-02T06:53:19.510Z,12.52
2022-11-02T06:55:53.884Z,13.90
2022-11-02T06:58:27.062Z,14.85
2022-11-02T07:01:01.067Z,14.05
2022-11-02T07:03:31.451Z,14.88
2022-11-02T07:06:01.537Z,13.80
2022-11-02T07:08:31.969Z,14.00
2022-11-02T07:11:02.550Z,13.23
2022-11-02T07:13:32.636Z,12.57
2022-11-02T07:16:03.807Z,12.70
2022-11-02T07:18:33.900Z,14.02
2022-11-02T07:21:03.946Z,12.80
2022-11-02T07:23:34.236Z,11.57
2022-11-02T07:26:04.375Z,10.93
2022-11-02T07:28:34.370Z,10.90
2022-11-02T07:31:04.463Z,9.13
2022-11-02T07:33:34.579Z,10.77
2022-11-02T07:36:05.662Z,9.18
2022-11-02T07:38:35.677Z,9.35
2022-11-02T07:41:05.808Z,9.30
2022-11-02T07:43:38.738Z,8.93
2022-11-02T07:46:27.725Z,8.25
2022-11-02T07:48:58.255Z,7.93
2022-11-02T07:51:28.394Z,7.80
2022-11-02T07:53:58.410Z,7.97
2022-11-02T07:56:28.449Z,9.20
2022-11-02T07:58:58.557Z,9.05
2022-11-02T08:01:29.220Z,7.40
2022-11-02T08:04:00.282Z,8.32
2022-11-02T08:06:30.810Z,8.45
2022-11-02T08:09:01.199Z,9.68
2022-11-02T08:11:31.695Z,9.98
2022-11-02T08:14:03.655Z,8.82
2022-11-02T08:16:33.695Z,7.43
2022-11-02T08:19:03.868Z,8.25
2022-11-02T08:21:33.948Z,7.93
2022-11-02T08:24:04.111Z,8.52
2022-11-02T08:26:34.058Z,6.57
2022-11-02T08:29:05.320Z,5.65
2022-11-02T08:31:35.876Z,7.15
2022-11-02T08:34:05.982Z,6.97
2022-11-02T08:36:38.042Z,6.35
2022-11-02T08:39:08.701Z,7.10
2022-11-02T08:41:38.815Z,6.90
2022-11-02T08:44:09.240Z,6.28
2022-11-02T08:46:39.821Z,7.20
2022-11-02T08:49:09.929Z,6.45
2022-11-02T08:51:39.947Z,7.55
2022-11-02T08:54:09.980Z,6.68
2022-11-02T08:56:39.959Z,5.75
2022-11-02T08:59:10.593Z,4.90
2022-11-02T09:01:42.148Z,4.40
2022-11-02T09:04:12.343Z,3.60
2022-11-02T09:06:42.402Z,4.20
2022-11-02T09:09:12.473Z,3.55
2022-11-02T09:11:42.424Z,3.83
2022-11-02T09:14:12.473Z,4.32
2022-11-02T09:16:42.453Z,4.53
2022-11-02T09:19:12.540Z,3.03
2022-11-02T09:21:42.825Z,4.00
2022-11-02T09:24:12.998Z,4.78
2022-11-02T09:26:43.019Z,5.55
2022-11-02T09:29:13.165Z,6.50
2022-11-02T09:31:43.318Z,8.48
2022-11-02T09:34:13.353Z,8.20
2022-11-02T09:36:43.424Z,8.40
2022-11-02T09:39:13.953Z,9.05
2022-11-02T09:41:45.752Z,8.10
2022-11-02T09:44:17.550Z,7.63
2022-11-02T09:46:53.823Z,8.85
2022-11-02T09:49:39.189Z,8.35
2022-11-02T09:52:09.742Z,7.35
2022-11-02T09:54:42.862Z,8.73
2022-11-02T09:57:14.171Z,7.70
2022-11-02T09:59:44.416Z,8.40
2022-11-02T10:02:33.788Z,9.10
2022-11-02T10:05:15.919Z,8.18
2022-11-02T10:07:52.218Z,8.93
2022-11-02T10:10:23.288Z,9.27
2022-11-02T10:13:01.283Z,8.90
2022-11-02T10:15:38.789Z,9.45
2022-11-02T10:18:08.866Z,11.05
2022-11-02T10:20:40.418Z,9.65
2022-11-02T10:23:11.305Z,11.70
2022-11-02T10:25:41.549Z,8.63
2022-11-02T10:28:16.983Z,8.65
2022-11-02T10:30:47.503Z,10.15
2022-11-02T10:33:20.866Z,12.63
2022-11-02T10:36:16.967Z,11.75
2022-11-02T10:38:56.778Z,10.02
2022-11-02T10:41:45.571Z,9.63
2022-11-02T10:44:33.746Z,10.80
2022-11-02T10:47:11.909Z,11.40
2022-11-02T10:49:45.323Z,12.65
2022-11-02T10:52:16.433Z,11.57
2022-11-02T10:54:46.748Z,11.35
2022-11-02T10:57:17.178Z,12.13
2022-11-02T10:59:47.964Z,11.13
2022-11-02T11:02:18.465Z,11.05
2022-11-02T11:04:48.609Z,10.73
2022-11-02T11:07:25.560Z,9.55
2022-11-02T11:09:59.462Z,10.32
2022-11-02T11:12:33.229Z,11.55
2022-11-02T11:20:44.596Z,10.32
2022-11-02T11:23:17.627Z,10.80
2022-11-02T11:25:57.081Z,10.70
2022-11-02T11:28:28.170Z,10.57
2022-11-02T11:31:17.571Z,11.18
2022-11-02T11:33:48.928Z,11.20
2022-11-02T11:39:10.643Z,14.88
2022-11-02T11:41:42.788Z,13.70
2022-11-02T11:44:14.130Z,15.73
2022-11-02T11:46:45.933Z,15.80
2022-11-02T11:49:31.040Z,15.30
2022-11-02T11:52:06.803Z,15.98
2022-11-02T11:54:36.807Z,14.48
2022-11-02T11:57:25.229Z,15.93
2022-11-02T11:59:58.520Z,16.13
2022-11-02T12:02:32.516Z,15.18
2022-11-02T12:05:03.884Z,15.80
2022-11-02T12:07:41.482Z,14.75
2022-11-02T12:10:19.462Z,14.27
2022-11-02T12:12:53.954Z,16.02
2022-11-02T12:15:30.057Z,17.52
2022-11-02T12:18:18.890Z,19.13
2022-11-02T12:20:49.181Z,17.25
2022-11-02T12:23:19.188Z,19.02
2022-11-02T12:25:55.556Z,18.48
2022-11-02T12:28:37.885Z,18.55
2022-11-02T12:31:17.991Z,17.80
2022-11-02T12:34:00.182Z,16.95
2022-11-02T12:36:33.134Z,16.35
2022-11-02T12:39:16.203Z,16.10
2022-11-02T12:41:58.213Z,16.23
2022-11-02T12:44:40.428Z,14.65
2022-11-02T12:47:21.557Z,15.25
2022-11-02T12:49:57.052Z,15.93
2022-11-02T12:52:33.608Z,17.90
2022-11-02T12:55:05.337Z,15.65
2022-11-02T12:57:38.282Z,16.10
2022-11-02T13:00:10.931Z,15.75
2022-11-02T13:02:49.704Z,16.13
2022-11-02T13:05:23.338Z,19.60
2022-11-02T13:08:01.980Z,20.80
2022-11-02T13:10:37.682Z,23.15
2022-11-02T13:13:08.068Z,27.67
2022-11-02T13:15:38.336Z,29.42
2022-11-02T13:18:17.447Z,32.63
2022-11-02T13:20:58.012Z,34.25
2022-11-02T13:23:28.198Z,32.22
2022-11-02T13:26:01.738Z,32.55
2022-11-02T13:28:35.214Z,25.65
2022-11-02T13:31:11.742Z,26.30
2022-11-02T13:33:47.029Z,24.70
2022-11-02T13:36:17.394Z,24.10
2022-11-02T13:39:13.805Z,22.88
2022-11-02T13:44:26.986Z,14.93
2022-11-02T13:47:11.578Z,13.30
2022-11-02T13:49:42.278Z,13.13
2022-11-02T13:52:18.927Z,12.50
2022-11-02T13:54:49.453Z,15.75
2022-11-02T13:57:25.699Z,13.27
2022-11-02T13:59:56.076Z,14.48
2022-11-02T14:02:27.229Z,13.38
2022-11-02T14:04:57.524Z,13.20
2022-11-02T14:07:29.024Z,14.68
2022-11-02T14:10:05.840Z,14.20
2022-11-02T14:12:43.029Z,15.00
2022-11-02T14:15:16.542Z,16.15
2022-11-02T14:18:03.355Z,16.08
2022-11-02T14:20:36.830Z,18.10
2022-11-02T14:23:27.532Z,16.95
2022-11-02T14:25:59.483Z,16.30
2022-11-02T14:28:33.334Z,15.75
2022-11-02T14:31:06.790Z,17.85
2022-11-02T14:33:37.330Z,18.67
2022-11-02T14:36:20.738Z,17.05
2022-11-02T14:38:51.237Z,16.17
2022-11-02T14:41:21.435Z,13.63
2022-11-02T14:44:09.860Z,12.60
2022-11-02T14:46:52.399Z,12.60
2022-11-02T14:49:29.160Z,13.88
2022-11-02T14:54:34.730Z,11.40
2022-11-02T14:57:05.317Z,11.93
2022-11-02T14:59:41.919Z,12.50
2022-11-02T15:04:48.565Z,12.88
2022-11-02T15:09:55.897Z,13.20
2022-11-02T15:12:32.916Z,13.48
2022-11-02T15:15:04.239Z,14.93
2022-11-02T15:17:35.099Z,14.35
2022-11-02T15:20:17.648Z,13.60
2022-11-02T15:22:50.929Z,14.55
2022-11-02T15:25:27.556Z,14.88
2022-11-02T15:27:58.170Z,15.48
2022-11-02T15:30:28.757Z,16.45
2022-11-02T15:33:02.111Z,15.75
2022-11-02T15:35:34.109Z,15.70
2022-11-02T15:38:25.806Z,14.73
2022-11-02T15:41:04.431Z,14.65
2022-11-02T15:46:54.805Z,13.98
2022-11-02T15:49:27.488Z,13.38
2022-11-02T15:52:01.218Z,14.10
2022-11-02T15:54:46.208Z,15.02
2022-11-02T15:57:20.321Z,14.80
2022-11-02T15:59:53.872Z,17.75
2022-11-02T16:02:24.679Z,19.13
2022-11-02T16:04:55.860Z,18.08
2022-11-02T16:07:33.184Z,18.90
2022-11-02T16:10:43.136Z,17.73
2022-11-02T16:13:14.705Z,16.15
2022-11-02T16:15:45.043Z,15.07
2022-11-02T16:18:28.206Z,14.30
2022-11-02T16:21:03.194Z,15.32
2022-11-02T16:23:34.004Z,13.68
2022-11-02T16:26:04.778Z,13.82
2022-11-02T16:28:35.442Z,14.25
2022-11-02T16:31:18.828Z,14.93
2022-11-02T16:33:53.817Z,14.85
2022-11-02T16:36:27.122Z,14.00
2022-11-02T16:39:00.602Z,14.23
2022-11-02T16:41:34.023Z,13.55
2022-11-02T16:44:11.349Z,14.70
2022-11-02T16:46:45.404Z,12.45
2022-11-02T16:49:16.967Z,14.90
2022-11-02T16:52:10.250Z,13.32
2022-11-02T16:54:41.852Z,12.80
2022-11-02T16:57:13.010Z,12.57
2022-11-02T16:59:59.650Z,13.40
2022-11-02T17:02:44.842Z,14.25
2022-11-02T17:05:20.893Z,13.23
2022-11-02T17:08:00.708Z,13.95
2022-11-02T17:10:31.130Z,12.15
2022-11-02T17:13:01.173Z,11.80
2022-11-02T17:15:31.525Z,11.35
2022-11-02T17:18:10.844Z,10.85
2022-11-02T17:20:41.279Z,11.15
2022-11-02T17:23:12.316Z,10.40
2022-11-02T17:25:42.501Z,12.35
2022-11-02T17:28:41.823Z,14.38
2022-11-02T17:31:19.091Z,15.95
2022-11-02T17:33:49.222Z,15.60
2022-11-02T17:36:19.229Z,17.25
2022-11-02T17:38:49.261Z,19.55
2022-11-02T17:41:38.201Z,21.20
2022-11-02T17:44:12.197Z,19.83
2022-11-02T17:46:45.686Z,17.63
2022-11-02T17:49:16.350Z,17.70
2022-11-02T17:51:46.343Z,17.95
2022-11-02T17:54:16.380Z,16.52
2022-11-02T17:56:46.399Z,15.52
2022-11-02T17:59:16.373Z,15.77
2022-11-02T18:01:46.949Z,18.98
2022-11-02T18:04:17.133Z,14.95
2022-11-02T18:06:47.125Z,16.33
2022-11-02T18:09:20.477Z,16.38
2022-11-02T18:11:51.152Z,16.80
2022-11-02T18:14:21.630Z,15.95
2022-11-02T18:16:53.950Z,13.68
2022-11-02T18:19:24.640Z,15.73
2022-11-02T18:21:55.213Z,14.95
2022-11-02T18:24:25.792Z,14.20
2022-11-02T18:26:55.793Z,14.52
2022-11-02T18:29:26.044Z,15.05
2022-11-02T18:31:56.317Z,12.98
2022-11-02T18:34:26.327Z,14.52
2022-11-02T18:36:56.296Z,13.00
2022-11-02T18:39:26.253Z,15.05
2022-11-02T18:41:56.191Z,15.57
2022-11-02T18:44:26.257Z,15.05
2022-11-02T18:46:58.873Z,14.50
2022-11-02T18:49:29.739Z,14.48
2022-11-02T18:52:00.137Z,13.40
2022-11-02T18:54:30.198Z,14.52
2022-11-02T18:57:00.274Z,13.82
2022-11-02T18:59:30.236Z,13.70
2022-11-02T19:02:00.850Z,13.98
2022-11-02T19:04:30.918Z,16.30
2022-11-02T19:07:19.342Z,14.10
2022-11-02T19:09:49.674Z,12.63
2022-11-02T19:12:24.466Z,12.10
2022-11-02T19:14:57.050Z,11.82
2022-11-02T19:17:27.361Z,11.45
2022-11-02T19:19:57.363Z,11.65
2022-11-02T19:22:28.107Z,11.50
2022-11-02T19:24:58.396Z,12.18
2022-11-02T19:27:28.575Z,12.23
2022-11-02T19:29:58.858Z,11.07
2022-11-02T19:32:29.593Z,11.27
2022-11-02T19:34:59.606Z,10.23
2022-11-02T19:37:34.293Z,10.57
2022-11-02T19:40:05.821Z,9.98
2022-11-02T19:42:36.234Z,12.35
2022-11-02T19:45:06.932Z,11.65
2022-11-02T19:47:36.939Z,11.02
2022-11-02T19:50:07.596Z,13.10
2022-11-02T19:52:37.976Z,11.10
2022-11-02T19:55:08.681Z,12.65
2022-11-02T19:57:38.658Z,11.10
2022-11-02T20:00:10.232Z,12.38
2022-11-02T20:02:40.804Z,12.40
2022-11-02T20:05:12.566Z,10.90
2022-11-02T20:07:42.864Z,11.60
2022-11-02T20:10:13.521Z,10.63
2022-11-02T20:12:44.252Z,11.30
2022-11-02T20:15:14.830Z,11.60
2022-11-02T20:18:05.562Z,10.85
2022-11-02T20:20:35.273Z,10.77
2022-11-02T20:23:05.877Z,9.93
2022-11-02T20:25:36.184Z,9.13
2022-11-02T20:28:06.497Z,9.32
2022-11-02T20:30:37.592Z,9.90
2022-11-02T20:33:08.026Z,8.60
2022-11-02T20:35:40.153Z,9.35
2022-11-02T20:38:10.192Z,9.50
2022-11-02T20:40:41.361Z,9.77
2022-11-02T20:43:12.387Z,9.38
2022-11-02T20:45:42.739Z,10.52
2022-11-02T20:48:12.907Z,10.00
2022-11-02T20:50:43.085Z,10.38
2022-11-02T20:53:14.061Z,9.77
2022-11-02T20:55:44.446Z,9.07
2022-11-02T20:58:14.552Z,8.20
2022-11-02T21:00:45.754Z,9.75
2022-11-02T21:03:17.237Z,8.80
2022-11-02T21:05:47.658Z,8.02
2022-11-02T21:08:17.726Z,9.18
2022-11-02T21:10:58.027Z,7.60
2022-11-02T21:13:46.792Z,7.53
2022-11-02T21:16:17.213Z,9.45
2022-11-02T21:18:48.298Z,8.73
2022-11-02T21:21:19.907Z,10.15
2022-11-02T21:23:50.242Z,9.48
2022-11-02T21:26:20.426Z,9.98
2022-11-02T21:28:50.446Z,9.90
2022-11-02T21:31:21.670Z,10.07
2022-11-02T21:33:52.328Z,10.52
2022-11-02T21:36:22.713Z,10.48
2022-11-02T21:38:52.795Z,8.43
2022-11-02T21:41:27.342Z,8.43
2022-11-02T21:43:57.614Z,8.20
2022-11-02T21:46:27.624Z,7.22
2022-11-02T21:48:58.327Z,9.50
2022-11-02T21:51:32.063Z,6.25
2022-11-02T21:54:02.236Z,8.05
2022-11-02T21:56:33.116Z,8.88
2022-11-02T21:59:03.623Z,7.40
2022-11-02T22:01:47.555Z,8.57
2022-11-02T22:04:26.149Z,6.78
2022-11-02T22:07:02.534Z,7.60
2022-11-02T22:09:32.661Z,8.50
2022-11-02T22:12:21.071Z,8.98
2022-11-02T22:14:51.118Z,9.10
2022-11-02T22:17:47.797Z,8.77
2022-11-02T22:20:11.523Z,9.18
2022-11-02T22:22:41.675Z,8.98
2022-11-02T22:25:11.981Z,10.77
2022-11-02T22:27:42.019Z,10.23
2022-11-02T22:30:12.367Z,11.82
2022-11-02T22:32:42.377Z,13.98
2022-11-02T22:35:12.628Z,13.38
2022-11-02T22:38:00.739Z,13.68
2022-11-02T22:40:31.552Z,11.27
2022-11-02T22:43:01.509Z,13.38
2022-11-02T22:45:31.538Z,11.27
2022-11-02T22:48:01.509Z,12.75
2022-11-02T22:50:31.529Z,12.60
2022-11-02T22:53:01.451Z,12.48
2022-11-02T22:55:32.705Z,10.20
2022-11-02T22:58:02.906Z,9.38
2022-11-02T23:00:32.871Z,10.68
2022-11-02T23:03:04.030Z,11.35
2022-11-02T23:05:34.254Z,10.77
2022-11-02T23:08:04.277Z,12.30
2022-11-02T23:10:54.486Z,11.13
2022-11-02T23:13:25.765Z,10.32
2022-11-02T23:16:15.599Z,9.70
2022-11-02T23:19:04.422Z,9.30
2022-11-02T23:21:35.259Z,9.23
2022-11-02T23:24:24.645Z,10.52
2022-11-02T23:26:55.247Z,10.77
2022-11-02T23:29:43.720Z,7.00
2022-11-02T23:32:29.880Z,9.77
2022-11-02T23:35:18.971Z,11.60
2022-11-02T23:37:49.176Z,8.85
2022-11-02T23:40:20.382Z,12.77
2022-11-02T23:42:50.824Z,13.18
2022-11-02T23:45:21.662Z,12.55
2022-11-02T23:48:04.156Z,11.57
2022-11-02T23:50:52.852Z,14.65
2022-11-02T23:53:41.881Z,12.65
2022-11-02T23:56:36.899Z,14.75
2022-11-02T23:59:10.413Z,16.40
